Time;durP1;ratioP1;P1;durP2;ratioP2;P2;SDS_P1;SDS_P2;PMS_P1;PMS_P2;Temp;Humidity;BMP_temperature;BMP_pressure;BME280_temperature;BME280_humidity;BME280_pressure;Samples;Min_cycle;Max_cycle;Signal;HPM_P1;HPM_P2
2023/03/22 00:01:45;;;;;;;5.07;3.90;;;10.80;99.90;;;;;;5017628;28;20272;-89
2023/03/22 00:04:11;;;;;;;5.27;3.50;;;10.80;99.90;;;;;;5017870;28;20185;-89
2023/03/22 00:06:37;;;;;;;9.27;3.90;;;10.80;99.90;;;;;;5000331;28;20180;-90
2023/03/22 00:09:02;;;;;;;8.77;3.90;;;10.90;99.90;;;;;;5018756;28;20200;-88
2023/03/22 00:11:28;;;;;;;5.07;3.40;;;10.80;99.90;;;;;;5000633;28;20240;-89
2023/03/22 00:13:53;;;;;;;8.40;4.20;;;10.80;99.90;;;;;;5015966;28;20558;-89
2023/03/22 00:16:20;;;;;;;5.47;3.47;;;10.90;99.90;;;;;;5000396;28;20196;-90
2023/03/22 00:18:46;;;;;;;6.90;3.50;;;10.90;99.90;;;;;;5017414;28;20188;-90
2023/03/22 00:21:13;;;;;;;6.53;4.40;;;10.90;99.90;;;;;;5000684;28;20216;-89
2023/03/22 00:23:39;;;;;;;5.57;3.80;;;10.90;99.90;;;;;;5000535;28;20203;-90
2023/03/22 00:26:05;;;;;;;7.70;4.30;;;10.90;99.90;;;;;;5000768;28;20181;-89
2023/03/22 00:28:31;;;;;;;11.53;4.97;;;10.90;99.90;;;;;;5016701;28;20180;-92
2023/03/22 00:30:59;;;;;;;10.40;3.90;;;10.90;99.90;;;;;;5000073;28;20196;-90
2023/03/22 00:33:25;;;;;;;7.40;3.70;;;10.90;99.90;;;;;;5000488;28;20196;-90
2023/03/22 00:35:52;;;;;;;8.17;4.13;;;10.90;99.90;;;;;;5018641;28;20173;-90
2023/03/22 00:38:18;;;;;;;5.53;3.83;;;10.90;99.90;;;;;;5016998;28;20259;-91
2023/03/22 00:40:43;;;;;;;5.27;3.60;;;10.90;99.90;;;;;;5000266;28;20653;-90
2023/03/22 00:43:09;;;;;;;6.43;4.13;;;10.90;99.90;;;;;;5017664;28;20197;-89
2023/03/22 00:45:39;;;;;;;6.70;4.27;;;10.80;99.90;;;;;;5001064;28;20268;-90
2023/03/22 00:48:10;;;;;;;8.67;4.43;;;10.80;99.90;;;;;;5018208;28;20244;-90
2023/03/22 00:50:37;;;;;;;6.70;4.40;;;10.80;99.90;;;;;;4998797;28;20632;-89
2023/03/22 00:53:03;;;;;;;6.10;4.17;;;10.80;99.90;;;;;;4999101;28;20201;-90
2023/03/22 00:55:29;;;;;;;8.40;4.63;;;10.70;99.90;;;;;;5018010;28;20237;-90
2023/03/22 00:57:54;;;;;;;5.47;4.33;;;10.70;99.90;;;;;;5018388;28;20177;-89
2023/03/22 01:00:20;;;;;;;9.10;4.70;;;10.70;99.90;;;;;;5017658;28;20300;-90
2023/03/22 01:02:46;;;;;;;10.73;4.17;;;10.70;99.90;;;;;;5016995;28;20224;-90
2023/03/22 01:05:14;;;;;;;7.40;4.47;;;10.60;99.90;;;;;;5017499;28;20775;-90
2023/03/22 01:07:41;;;;;;;5.53;3.83;;;10.60;99.90;;;;;;5016943;28;20192;-91
2023/03/22 01:10:08;;;;;;;10.10;4.80;;;10.60;99.90;;;;;;5000900;28;20258;-90
2023/03/22 01:12:34;;;;;;;11.20;5.37;;;10.60;99.90;;;;;;5015750;28;20259;-90
2023/03/22 01:14:59;;;;;;;9.40;4.90;;;10.60;99.90;;;;;;5018531;28;20169;-90
2023/03/22 01:17:25;;;;;;;6.83;3.90;;;10.60;99.90;;;;;;5019171;28;20180;-90
2023/03/22 01:19:50;;;;;;;7.37;4.97;;;10.60;99.90;;;;;;5000553;28;20652;-90
2023/03/22 01:22:16;;;;;;;12.33;4.90;;;10.60;99.90;;;;;;5001157;28;20205;-91
2023/03/22 01:24:41;;;;;;;6.43;4.50;;;10.50;99.90;;;;;;5000081;28;20181;-91
2023/03/22 01:27:07;;;;;;;7.50;4.50;;;10.50;99.90;;;;;;5017827;28;20173;-90
2023/03/22 01:29:34;;;;;;;8.03;5.00;;;11.40;99.90;;;;;;5017718;28;20177;-91
2023/03/22 01:31:59;;;;;;;7.33;5.20;;;10.50;99.90;;;;;;5000187;28;20627;-93
2023/03/22 01:34:25;;;;;;;9.07;5.07;;;10.50;99.90;;;;;;5017689;28;20185;-91
2023/03/22 01:36:51;;;;;;;6.80;4.50;;;10.50;99.90;;;;;;5018371;28;20536;-93
2023/03/22 01:39:17;;;;;;;6.07;4.50;;;9.90;99.90;;;;;;5019948;28;20645;-90
2023/03/22 01:41:42;;;;;;;6.73;4.90;;;10.50;99.90;;;;;;5019732;28;20197;-90
2023/03/22 01:44:12;;;;;;;7.10;4.40;;;10.60;99.90;;;;;;5002172;28;20181;-90
2023/03/22 01:46:39;;;;;;;7.63;4.70;;;10.50;99.90;;;;;;5020018;28;20531;-90
2023/03/22 01:49:07;;;;;;;6.57;4.73;;;10.40;99.90;;;;;;5018885;28;20168;-90
2023/03/22 01:51:33;;;;;;;8.03;5.03;;;10.40;99.90;;;;;;5018003;28;20212;-91
2023/03/22 01:54:05;;;;;;;10.37;4.97;;;10.30;99.90;;;;;;5017950;28;20200;-90
2023/03/22 01:56:37;;;;;;;8.83;4.63;;;10.40;99.90;;;;;;5000121;28;20173;-91
2023/03/22 01:59:05;;;;;;;8.80;4.80;;;10.30;99.90;;;;;;5018074;28;20212;-91
2023/03/22 02:01:32;;;;;;;8.30;5.50;;;10.30;99.90;;;;;;5019150;28;20201;-91
2023/03/22 02:04:08;;;;;;;9.30;4.90;;;10.20;99.90;;;;;;5037998;28;20208;-88
2023/03/22 02:06:37;;;;;;;9.63;4.53;;;10.20;99.90;;;;;;5020205;28;20164;-91
2023/03/22 02:09:07;;;;;;;7.23;4.77;;;10.20;99.90;;;;;;5015899;28;20177;-92
2023/03/22 02:11:42;;;;;;;7.30;4.87;;;10.10;99.90;;;;;;5017980;28;20294;-91
2023/03/22 02:14:17;;;;;;;9.43;5.63;;;10.10;99.90;;;;;;5017028;28;20161;-91
2023/03/22 02:16:49;;;;;;;5.70;4.70;;;10.10;99.90;;;;;;4999231;28;20172;-91
2023/03/22 02:19:41;;;;;;;14.50;5.50;;;10.10;99.90;;;;;;5000223;28;20177;-91
2023/03/22 02:23:02;;;;;;;9.50;5.57;;;10.00;99.90;;;;;;5015636;28;20279;-91
2023/03/22 02:26:05;;;;;;;7.80;5.53;;;10.00;99.90;;;;;;5000053;28;20300;-91
2023/03/22 02:28:44;;;;;;;6.97;5.20;;;10.00;99.90;;;;;;4998959;28;20259;-91
2023/03/22 02:31:51;;;;;;;7.97;5.47;;;10.00;99.90;;;;;;5016763;28;20228;-91
2023/03/22 02:34:43;;;;;;;8.70;5.63;;;9.90;99.90;;;;;;5016988;28;20162;-90
2023/03/22 02:37:33;;;;;;;8.80;5.77;;;9.90;99.90;;;;;;5010250;28;20483;-91
2023/03/22 02:40:15;;;;;;;7.43;5.47;;;9.90;99.90;;;;;;5009893;28;20177;-90
2023/03/22 02:43:09;;;;;;;9.33;5.87;;;9.90;99.90;;;;;;5007261;28;20640;-91
2023/03/22 02:45:44;;;;;;;8.27;5.77;;;9.80;99.90;;;;;;5016530;28;20157;-90
2023/03/22 02:48:21;;;;;;;11.97;6.60;;;9.80;99.90;;;;;;5016429;28;20199;-91
2023/03/22 02:50:54;;;;;;;9.87;6.03;;;9.90;99.90;;;;;;5017677;28;20200;-91
2023/03/22 02:53:26;;;;;;;9.50;5.30;;;9.80;99.90;;;;;;5015862;28;20176;-91
2023/03/22 02:56:02;;;;;;;9.53;6.13;;;9.80;99.90;;;;;;4999616;28;20541;-90
2023/03/22 02:58:35;;;;;;;8.93;5.97;;;9.80;99.90;;;;;;5015532;28;20187;-91
2023/03/22 03:01:05;;;;;;;10.13;5.90;;;9.70;99.90;;;;;;5016800;28;20208;-91
2023/03/22 03:03:36;;;;;;;9.43;5.70;;;9.70;99.90;;;;;;4999489;28;20311;-92
2023/03/22 03:06:08;;;;;;;8.23;5.53;;;9.70;99.90;;;;;;5016480;28;20184;-90
2023/03/22 03:08:36;;;;;;;9.83;6.00;;;9.60;99.90;;;;;;5037222;28;20177;-90
2023/03/22 03:11:01;;;;;;;11.73;6.43;;;9.60;99.90;;;;;;5019161;28;20209;-90
2023/03/22 03:13:27;;;;;;;7.47;5.93;;;9.60;99.90;;;;;;5031256;28;20232;-91
2023/03/22 03:15:59;;;;;;;13.97;5.80;;;9.50;99.90;;;;;;5016272;28;20181;-91
2023/03/22 03:18:52;;;;;;;9.57;6.57;;;9.50;99.90;;;;;;5016542;28;20149;-91
2023/03/22 03:21:44;;;;;;;8.40;5.70;;;9.50;99.90;;;;;;5016392;28;20582;-90
2023/03/22 03:24:27;;;;;;;11.20;6.03;;;9.50;99.90;;;;;;4998606;28;20173;-90
2023/03/22 03:26:57;;;;;;;9.87;6.30;;;9.50;99.90;;;;;;5015618;28;20628;-91
2023/03/22 03:29:47;;;;;;;9.10;5.90;;;9.40;99.90;;;;;;5015915;28;20613;-91
2023/03/22 03:32:20;;;;;;;11.57;6.17;;;9.40;99.90;;;;;;5015817;28;20287;-90
2023/03/22 03:34:58;;;;;;;8.67;6.10;;;9.40;99.90;;;;;;4998417;28;20176;-91
2023/03/22 03:37:36;;;;;;;13.20;6.27;;;9.40;99.90;;;;;;4998834;28;20191;-90
2023/03/22 03:40:09;;;;;;;6.93;6.20;;;9.30;99.90;;;;;;5015866;28;20172;-91
2023/03/22 03:42:38;;;;;;;8.23;6.03;;;9.30;99.90;;;;;;5015649;28;20200;-90
2023/03/22 03:45:04;;;;;;;14.47;6.00;;;9.30;99.90;;;;;;5014157;28;20177;-90
2023/03/22 03:47:31;;;;;;;11.07;6.80;;;9.30;99.90;;;;;;5015038;28;20181;-90
2023/03/22 03:49:56;;;;;;;10.93;6.40;;;9.20;99.90;;;;;;5019275;28;20540;-90
2023/03/22 03:52:25;;;;;;;11.97;6.47;;;9.30;99.90;;;;;;5017926;28;20212;-90
2023/03/22 03:54:50;;;;;;;10.17;6.63;;;9.30;99.90;;;;;;5019083;28;20208;-90
2023/03/22 03:57:16;;;;;;;11.10;7.03;;;9.20;99.90;;;;;;5001891;28;20176;-90
2023/03/22 03:59:41;;;;;;;10.17;6.13;;;9.30;99.90;;;;;;5002073;28;20209;-91
2023/03/22 04:02:07;;;;;;;10.23;6.27;;;9.20;99.90;;;;;;5019573;28;20207;-91
2023/03/22 04:04:33;;;;;;;11.87;6.87;;;9.20;99.90;;;;;;5019377;28;20622;-90
2023/03/22 04:07:00;;;;;;;7.93;6.20;;;9.20;99.90;;;;;;5002005;28;20557;-91
2023/03/22 04:09:32;;;;;;;9.97;6.90;;;9.10;99.90;;;;;;5018888;28;20204;-90
2023/03/22 04:11:58;;;;;;;10.03;7.03;;;9.10;99.90;;;;;;5018023;28;20204;-90
2023/03/22 04:14:24;;;;;;;11.13;7.17;;;9.10;99.90;;;;;;5001536;28;20177;-91
2023/03/22 04:16:51;;;;;;;9.57;6.67;;;9.10;99.90;;;;;;5019311;28;20177;-91
2023/03/22 04:19:17;;;;;;;10.97;7.10;;;9.10;99.90;;;;;;5018450;28;20180;-90
2023/03/22 04:21:43;;;;;;;9.13;6.30;;;9.10;99.90;;;;;;5001166;28;20288;-90
2023/03/22 04:24:09;;;;;;;10.30;6.47;;;9.00;99.90;;;;;;5019110;28;20184;-91
2023/03/22 04:26:35;;;;;;;13.83;7.07;;;9.00;99.90;;;;;;5018833;28;20691;-91
2023/03/22 04:29:03;;;;;;;10.30;7.17;;;9.00;99.90;;;;;;5000070;28;20181;-91
2023/03/22 04:31:30;;;;;;;10.43;6.90;;;9.00;99.90;;;;;;5016644;28;20216;-90
2023/03/22 04:33:55;;;;;;;8.63;6.40;;;9.00;99.90;;;;;;5000871;28;20625;-90
2023/03/22 04:36:22;;;;;;;10.97;6.23;;;8.90;99.90;;;;;;5001414;28;20176;-90
2023/03/22 04:38:49;;;;;;;11.77;6.73;;;9.30;99.90;;;;;;5000744;28;20180;-90
2023/03/22 04:41:15;;;;;;;9.07;6.07;;;9.50;99.90;;;;;;5000768;28;20204;-91
2023/03/22 04:43:40;;;;;;;8.00;6.17;;;9.10;99.90;;;;;;5000752;28;20173;-90
2023/03/22 04:46:11;;;;;;;11.77;5.90;;;9.80;99.90;;;;;;5000655;28;20176;-90
2023/03/22 04:48:40;;;;;;;9.07;6.20;;;9.00;99.90;;;;;;5018497;28;20153;-91
2023/03/22 04:51:08;;;;;;;8.70;6.03;;;9.70;99.90;;;;;;5017936;28;20205;-90
2023/03/22 04:53:37;;;;;;;9.57;5.90;;;8.90;99.90;;;;;;5018892;28;20173;-91
2023/03/22 04:56:05;;;;;;;8.70;5.63;;;8.90;99.90;;;;;;5018799;28;20268;-90
2023/03/22 04:58:32;;;;;;;13.83;6.50;;;8.90;99.90;;;;;;5019240;28;20176;-90
2023/03/22 05:00:58;;;;;;;9.23;6.00;;;8.90;99.90;;;;;;5018591;28;20170;-91
2023/03/22 05:03:24;;;;;;;11.70;6.73;;;9.10;99.90;;;;;;5018956;28;20200;-90
2023/03/22 05:05:56;;;;;;;9.10;6.20;;;8.90;99.90;;;;;;5001814;28;20264;-91
2023/03/22 05:08:25;;;;;;;11.83;6.93;;;9.00;99.90;;;;;;5018974;28;20523;-90
2023/03/22 05:10:55;;;;;;;11.03;7.23;;;9.00;99.90;;;;;;5018138;28;20221;-90
2023/03/22 05:13:23;;;;;;;10.30;5.83;;;9.00;99.90;;;;;;5019030;28;20257;-90
2023/03/22 05:15:48;;;;;;;9.80;5.83;;;9.00;99.90;;;;;;5000630;28;20203;-90
2023/03/22 05:18:25;;;;;;;8.70;6.53;;;9.00;99.90;;;;;;5000742;28;20173;-91
2023/03/22 05:20:53;;;;;;;10.27;6.87;;;9.00;99.90;;;;;;5018518;28;20161;-90
2023/03/22 05:23:19;;;;;;;15.53;6.57;;;9.00;99.90;;;;;;5000913;28;20276;-91
2023/03/22 05:25:46;;;;;;;8.93;5.73;;;9.00;99.90;;;;;;5017414;28;20165;-91
2023/03/22 05:28:13;;;;;;;9.33;5.93;;;9.10;99.90;;;;;;5000019;28;20181;-91
2023/03/22 05:30:42;;;;;;;8.27;5.80;;;9.10;99.90;;;;;;5017227;28;20181;-91
2023/03/22 05:33:08;;;;;;;10.30;6.00;;;9.10;99.90;;;;;;4999284;28;20704;-90
2023/03/22 05:35:36;;;;;;;7.03;5.73;;;9.10;99.90;;;;;;4999145;28;20215;-91
2023/03/22 05:38:02;;;;;;;12.07;5.57;;;9.10;99.90;;;;;;5000885;28;20212;-91
2023/03/22 05:40:27;;;;;;;9.47;5.93;;;9.20;99.90;;;;;;5000190;28;20177;-89
2023/03/22 05:42:53;;;;;;;7.17;5.43;;;9.20;99.90;;;;;;5015769;28;20742;-90
2023/03/22 05:45:20;;;;;;;8.60;5.53;;;9.20;99.90;;;;;;5014416;28;20215;-90
2023/03/22 05:47:45;;;;;;;9.63;6.10;;;9.20;99.90;;;;;;4998413;28;20216;-90
2023/03/22 05:50:13;;;;;;;11.27;5.43;;;9.30;99.90;;;;;;5018941;28;20176;-90
2023/03/22 05:52:39;;;;;;;6.27;4.87;;;9.30;99.90;;;;;;5016811;28;20193;-89
2023/03/22 05:55:06;;;;;;;9.70;5.80;;;9.40;99.90;;;;;;5004929;28;20171;-78
2023/03/22 05:57:31;;;;;;;8.37;5.03;;;9.40;99.90;;;;;;4998372;28;20590;-79
2023/03/22 05:59:57;;;;;;;10.43;5.20;;;9.40;99.90;;;;;;4998938;28;20168;-78
2023/03/22 06:02:24;;;;;;;8.70;5.33;;;9.50;99.90;;;;;;5014841;28;20299;-78
2023/03/22 06:04:51;;;;;;;10.60;5.30;;;9.50;99.90;;;;;;5015092;28;20173;-78
2023/03/22 06:07:17;;;;;;;8.53;5.47;;;9.50;99.90;;;;;;4997396;28;20191;-78
2023/03/22 06:09:43;;;;;;;7.63;4.97;;;9.60;99.90;;;;;;4997334;28;20184;-79
2023/03/22 06:12:09;;;;;;;7.37;4.83;;;9.60;99.90;;;;;;5015341;28;20213;-79
2023/03/22 06:14:34;;;;;;;14.00;5.67;;;9.70;99.90;;;;;;5015559;28;20161;-79
2023/03/22 06:17:00;;;;;;;9.47;5.40;;;9.70;99.90;;;;;;4998684;28;20177;-79
2023/03/22 06:19:26;;;;;;;11.03;4.30;;;9.70;99.90;;;;;;5016268;28;20180;-79
2023/03/22 06:21:53;;;;;;;10.83;4.67;;;9.80;99.90;;;;;;5016245;28;20307;-79
2023/03/22 06:24:19;;;;;;;11.20;4.37;;;9.80;99.90;;;;;;5016310;28;20181;-79
2023/03/22 06:26:45;;;;;;;8.83;4.97;;;9.90;99.90;;;;;;4998641;28;20209;-79
2023/03/22 06:29:10;;;;;;;7.23;4.40;;;10.00;99.90;;;;;;4998121;28;20177;-79
2023/03/22 06:31:36;;;;;;;7.20;3.93;;;10.00;99.90;;;;;;5016285;28;20207;-79
2023/03/22 06:34:02;;;;;;;10.70;4.40;;;10.00;99.90;;;;;;5016597;28;20660;-79
2023/03/22 06:36:28;;;;;;;9.57;4.53;;;10.10;99.90;;;;;;5004039;28;20200;-81
2023/03/22 06:38:54;;;;;;;9.37;4.47;;;10.20;99.90;;;;;;5023479;28;20173;-80
2023/03/22 06:41:19;;;;;;;6.90;3.87;;;10.20;99.90;;;;;;5005718;28;20203;-80
2023/03/22 06:43:45;;;;;;;7.53;3.80;;;10.20;99.90;;;;;;5021236;28;20176;-81
2023/03/22 06:46:10;;;;;;;7.73;3.37;;;10.30;99.90;;;;;;5003780;28;20172;-80
2023/03/22 06:48:36;;;;;;;9.00;3.80;;;10.30;99.90;;;;;;5019627;28;20183;-80
2023/03/22 06:51:02;;;;;;;8.17;4.03;;;10.30;99.90;;;;;;5020921;28;20196;-82
2023/03/22 06:53:27;;;;;;;10.40;4.10;;;10.40;99.90;;;;;;5002439;28;20185;-80
2023/03/22 06:55:53;;;;;;;8.37;3.77;;;10.40;99.90;;;;;;5017266;28;20188;-80
2023/03/22 06:58:18;;;;;;;6.30;3.70;;;10.40;99.90;;;;;;4998626;28;20184;-79
2023/03/22 07:00:44;;;;;;;6.27;3.73;;;10.40;99.90;;;;;;4998069;28;20183;-80
2023/03/22 07:03:09;;;;;;;7.00;3.07;;;10.50;99.90;;;;;;5016179;28;20208;-79
2023/03/22 07:05:35;;;;;;;5.53;3.30;;;10.50;99.90;;;;;;5016151;28;20680;-80
2023/03/22 07:08:01;;;;;;;12.13;3.73;;;10.50;99.90;;;;;;5016181;28;20172;-79
2023/03/22 07:10:28;;;;;;;8.67;3.20;;;10.60;99.90;;;;;;4998549;28;20177;-80
2023/03/22 07:12:54;;;;;;;6.23;3.33;;;10.60;99.90;;;;;;5015434;28;20263;-80
2023/03/22 07:15:23;;;;;;;5.13;3.07;;;10.70;99.90;;;;;;5015572;28;20173;-80
2023/03/22 07:17:50;;;;;;;6.90;3.20;;;10.70;99.90;;;;;;5015983;28;20166;-79
2023/03/22 07:20:16;;;;;;;7.53;3.17;;;10.80;99.90;;;;;;4998873;28;20653;-80
2023/03/22 07:22:42;;;;;;;7.40;2.67;;;10.90;99.90;;;;;;5017478;28;20334;-81
2023/03/22 07:25:07;;;;;;;6.10;3.37;;;11.00;99.90;;;;;;5020373;28;20196;-80
2023/03/22 07:27:33;;;;;;;6.57;2.67;;;11.10;99.90;;;;;;5020041;28;20177;-80
2023/03/22 07:29:59;;;;;;;5.03;3.13;;;11.10;99.90;;;;;;5002216;28;20247;-79
2023/03/22 07:32:24;;;;;;;8.37;3.00;;;11.20;99.90;;;;;;5019399;28;20240;-79
2023/03/22 07:34:50;;;;;;;5.93;2.60;;;11.30;99.90;;;;;;5019633;28;20568;-80
2023/03/22 07:37:15;;;;;;;6.17;2.90;;;11.40;99.90;;;;;;5019804;28;20188;-80
2023/03/22 07:39:41;;;;;;;4.83;2.67;;;11.40;99.90;;;;;;5019936;28;20185;-80
2023/03/22 07:42:06;;;;;;;6.43;2.63;;;11.50;99.90;;;;;;5019868;28;20295;-80
2023/03/22 07:44:32;;;;;;;7.27;2.60;;;11.50;99.90;;;;;;5019822;28;20187;-80
2023/03/22 07:46:57;;;;;;;7.77;2.80;;;11.50;99.90;;;;;;5020022;28;20176;-80
2023/03/22 07:49:23;;;;;;;8.43;2.53;;;11.50;99.90;;;;;;5018460;28;20208;-80
2023/03/22 07:51:48;;;;;;;6.67;2.47;;;11.50;99.90;;;;;;5001626;28;20209;-80
2023/03/22 07:54:14;;;;;;;7.10;2.07;;;11.50;99.90;;;;;;5002579;28;20231;-79
2023/03/22 07:56:41;;;;;;;6.33;2.33;;;11.50;99.90;;;;;;5019496;28;20235;-80
2023/03/22 07:59:06;;;;;;;6.00;1.57;;;11.50;71.30;;;;;;5001836;28;20173;-81
2023/03/22 08:01:32;;;;;;;6.83;2.20;;;11.50;51.50;;;;;;5018932;28;20201;-80
2023/03/22 08:03:58;;;;;;;3.97;1.60;;;11.60;32.20;;;;;;5019844;28;20260;-81
2023/03/22 08:06:23;;;;;;;4.43;1.50;;;11.60;1.00;;;;;;5018028;28;20215;-81
2023/03/22 08:08:49;;;;;;;9.17;1.43;;;11.70;1.00;;;;;;5020599;28;20177;-80
2023/03/22 08:11:14;;;;;;;2.10;1.00;;;11.70;1.00;;;;;;5001118;28;20212;-81
2023/03/22 08:13:40;;;;;;;2.77;1.53;;;11.80;1.00;;;;;;5001597;28;20175;-80
2023/03/22 08:16:06;;;;;;;5.70;1.50;;;11.80;1.00;;;;;;5001495;28;20220;-80
2023/03/22 08:18:31;;;;;;;4.30;1.33;;;11.90;1.00;;;;;;5001669;28;20184;-80
2023/03/22 08:20:58;;;;;;;5.87;1.20;;;11.90;1.00;;;;;;5001425;28;20173;-81
2023/03/22 08:23:25;;;;;;;8.03;1.47;;;11.90;1.00;;;;;;5001667;28;20194;-80
2023/03/22 08:25:52;;;;;;;1.77;1.00;;;11.90;1.00;;;;;;5019672;28;20169;-80
2023/03/22 08:28:18;;;;;;;7.37;1.40;;;11.90;1.00;;;;;;5019486;28;20540;-80
2023/03/22 08:30:46;;;;;;;2.37;1.00;;;11.90;1.00;;;;;;5001033;28;20185;-81
2023/03/22 08:33:12;;;;;;;6.70;1.30;;;11.90;1.00;;;;;;5018604;28;20576;-80
2023/03/22 08:35:38;;;;;;;7.13;1.50;;;11.90;1.00;;;;;;5000412;28;20613;-80
2023/03/22 08:38:04;;;;;;;4.97;1.27;;;12.00;1.00;;;;;;5001077;28;20177;-80
2023/03/22 08:40:30;;;;;;;3.07;1.40;;;12.00;1.00;;;;;;5017262;28;20607;-81
2023/03/22 08:42:55;;;;;;;3.93;1.20;;;12.00;1.00;;;;;;5017538;28;20197;-81
2023/03/22 08:45:21;;;;;;;6.87;1.73;;;12.00;1.00;;;;;;5001465;28;20641;-80
2023/03/22 08:47:46;;;;;;;5.50;1.57;;;12.00;1.00;;;;;;5018827;28;20201;-81
2023/03/22 08:50:12;;;;;;;7.63;1.53;;;12.00;1.00;;;;;;5001404;28;20215;-81
2023/03/22 08:52:38;;;;;;;7.63;1.20;;;12.10;1.00;;;;;;5019764;28;20207;-80
2023/03/22 08:55:05;;;;;;;5.87;1.30;;;12.10;1.00;;;;;;5018771;28;20649;-80
2023/03/22 08:57:30;;;;;;;2.60;1.10;;;12.10;1.00;;;;;;5018942;28;20173;-81
2023/03/22 08:59:56;;;;;;;5.07;1.37;;;12.20;1.00;;;;;;5002094;28;20169;-80
2023/03/22 09:02:23;;;;;;;7.07;1.50;;;12.20;1.00;;;;;;5019058;28;20223;-80
2023/03/22 09:04:48;;;;;;;7.33;1.43;;;12.30;1.00;;;;;;5018933;28;20172;-80
2023/03/22 09:07:16;;;;;;;6.43;1.53;;;12.50;1.00;;;;;;5001139;28;20235;-81
2023/03/22 09:09:42;;;;;;;6.13;1.40;;;12.30;1.00;;;;;;5000832;28;20328;-80
2023/03/22 09:12:08;;;;;;;4.70;1.90;;;12.40;1.00;;;;;;5003538;28;20686;-82
2023/03/22 09:14:34;;;;;;;8.07;1.77;;;12.50;1.00;;;;;;5004629;28;20184;-82
2023/03/22 09:17:00;;;;;;;3.50;1.13;;;12.50;1.00;;;;;;5005686;28;20260;-82
2023/03/22 09:19:25;;;;;;;6.97;1.83;;;12.50;1.00;;;;;;5023127;28;20179;-80
2023/03/22 09:21:51;;;;;;;3.30;1.50;;;12.60;1.00;;;;;;5022896;28;20228;-82
2023/03/22 09:24:17;;;;;;;5.60;1.40;;;12.60;1.00;;;;;;5023098;28;20177;-82
2023/03/22 09:26:42;;;;;;;3.37;1.10;;;12.70;1.00;;;;;;5023239;28;20185;-82
2023/03/22 09:29:09;;;;;;;3.03;1.23;;;12.70;1.00;;;;;;5024076;28;20177;-81
2023/03/22 09:31:34;;;;;;;5.40;1.27;;;12.70;1.00;;;;;;5023344;28;20224;-82
2023/03/22 09:34:00;;;;;;;10.93;1.60;;;12.90;1.00;;;;;;5007072;28;20169;-81
2023/03/22 09:36:26;;;;;;;4.20;1.40;;;12.80;1.00;;;;;;5006647;28;20175;-82
2023/03/22 09:38:51;;;;;;;3.70;1.30;;;12.70;99.90;;;;;;5021536;28;20169;-82
2023/03/22 09:41:22;;;;;;;4.90;1.70;;;12.80;1.00;;;;;;5022519;28;20197;-82
2023/03/22 09:43:52;;;;;;;5.77;1.27;;;12.80;99.90;;;;;;5023545;28;20164;-82
2023/03/22 09:46:48;;;;;;;4.83;1.27;;;12.70;99.90;;;;;;5021853;28;20154;-81
2023/03/22 09:49:21;;;;;;;2.77;1.30;;;12.60;99.90;;;;;;4992841;28;20649;-82
2023/03/22 09:51:49;;;;;;;2.70;1.50;;;12.60;99.90;;;;;;5024840;28;20224;-83
2023/03/22 09:54:26;;;;;;;3.87;1.40;;;12.70;1.00;;;;;;5024549;28;20195;-81
2023/03/22 09:57:03;;;;;;;3.70;1.13;;;12.80;99.90;;;;;;5025064;28;20180;-81
2023/03/22 09:59:34;;;;;;;5.13;1.63;;;12.80;99.90;;;;;;5025129;28;20217;-82
2023/03/22 10:02:11;;;;;;;5.83;1.37;;;12.80;99.90;;;;;;5022870;28;20661;-82
2023/03/22 10:05:02;;;;;;;3.57;1.30;;;12.90;99.90;;;;;;5022207;28;20540;-81
2023/03/22 10:07:52;;;;;;;5.50;1.30;;;13.00;99.90;;;;;;5003699;28;20204;-83
2023/03/22 10:10:21;;;;;;;5.10;1.77;;;13.00;99.90;;;;;;5004374;28;20257;-81
2023/03/22 10:12:50;;;;;;;4.03;1.37;;;13.00;99.90;;;;;;5020660;28;20243;-81
2023/03/22 10:15:31;;;;;;;3.73;1.20;;;13.00;99.90;;;;;;5019864;28;20251;-82
2023/03/22 10:18:01;;;;;;;7.47;1.50;;;13.00;99.90;;;;;;5021674;28;20188;-81
2023/03/22 10:20:45;;;;;;;4.17;1.50;;;13.00;99.90;;;;;;5021659;28;20169;-81
2023/03/22 10:23:16;;;;;;;4.87;1.30;;;13.10;99.90;;;;;;5021905;28;20192;-81
2023/03/22 10:25:42;;;;;;;4.20;1.50;;;13.20;99.90;;;;;;5003492;28;20191;-81
2023/03/22 10:28:17;;;;;;;3.67;1.50;;;13.30;99.90;;;;;;5004187;28;20240;-81
2023/03/22 10:30:49;;;;;;;2.73;1.30;;;13.30;99.90;;;;;;5019866;28;20244;-81
2023/03/22 10:33:30;;;;;;;6.07;1.20;;;13.30;99.90;;;;;;5003620;28;20358;-81
2023/03/22 10:35:56;;;;;;;7.00;1.37;;;13.30;99.90;;;;;;5020754;28;20219;-81
2023/03/22 10:38:25;;;;;;;5.10;1.30;;;13.30;99.90;;;;;;5003653;28;20587;-81
2023/03/22 10:40:54;;;;;;;4.60;1.30;;;13.30;99.90;;;;;;5003611;28;20257;-82
2023/03/22 10:43:22;;;;;;;6.03;1.57;;;13.20;99.90;;;;;;5002443;28;20200;-82
2023/03/22 10:45:51;;;;;;;5.03;1.67;;;13.30;99.90;;;;;;5002008;28;20268;-82
2023/03/22 10:48:42;;;;;;;6.03;1.20;;;13.20;99.90;;;;;;5002353;28;20653;-82
2023/03/22 10:51:19;;;;;;;4.20;1.50;;;13.10;99.90;;;;;;4995264;28;20185;-80
2023/03/22 10:53:47;;;;;;;7.00;1.50;;;13.10;99.90;;;;;;5003035;28;20541;-81
2023/03/22 10:56:17;;;;;;;8.00;1.33;;;13.10;99.90;;;;;;5001128;28;20192;-80
2023/03/22 10:58:43;;;;;;;6.07;1.37;;;13.10;99.90;;;;;;5004077;28;20172;-81
2023/03/22 11:01:31;;;;;;;4.37;1.23;;;13.20;99.90;;;;;;5004835;28;20275;-82
2023/03/22 11:04:09;;;;;;;4.27;1.23;;;13.10;99.90;;;;;;5006487;28;20486;-81
2023/03/22 11:06:46;;;;;;;6.67;1.60;;;13.20;99.90;;;;;;5005552;28;20232;-81
2023/03/22 11:09:16;;;;;;;9.53;1.33;;;13.20;99.90;;;;;;5005544;28;20171;-81
2023/03/22 11:11:59;;;;;;;5.37;1.33;;;13.30;99.90;;;;;;5004351;28;20212;-80
2023/03/22 11:14:44;;;;;;;3.83;1.13;;;13.20;99.90;;;;;;5021336;28;20165;-83
2023/03/22 11:17:15;;;;;;;6.33;1.47;;;13.20;99.90;;;;;;5002616;28;20179;-80
2023/03/22 11:19:51;;;;;;;5.83;1.70;;;13.20;99.90;;;;;;5003223;28;20247;-82
2023/03/22 11:22:23;;;;;;;3.77;1.10;;;13.10;99.90;;;;;;5019156;28;20636;-81
2023/03/22 11:24:50;;;;;;;6.13;1.20;;;13.10;99.90;;;;;;5021092;28;20224;-82
2023/03/22 11:27:25;;;;;;;3.77;1.20;;;13.10;99.90;;;;;;5020830;28;20641;-82
2023/03/22 11:30:19;;;;;;;5.10;1.60;;;13.20;99.90;;;;;;5002958;28;20614;-82
2023/03/22 11:32:44;;;;;;;6.07;1.07;;;13.10;99.90;;;;;;5020112;28;20204;-82
2023/03/22 11:35:11;;;;;;;2.83;1.20;;;13.10;99.90;;;;;;5002405;28;20173;-82
2023/03/22 11:37:46;;;;;;;4.07;1.30;;;13.00;99.90;;;;;;5002085;28;20177;-81
2023/03/22 11:40:15;;;;;;;3.90;1.30;;;13.00;99.90;;;;;;5020053;28;20179;-81
2023/03/22 11:42:41;;;;;;;6.07;1.53;;;13.00;99.90;;;;;;5020346;28;20223;-81
2023/03/22 11:45:09;;;;;;;6.40;1.47;;;13.10;99.90;;;;;;5020194;28;20598;-81
2023/03/22 11:47:37;;;;;;;4.90;1.33;;;13.10;99.90;;;;;;5020584;28;20173;-82
2023/03/22 11:50:06;;;;;;;7.43;1.50;;;13.10;99.90;;;;;;5003029;28;20172;-82
2023/03/22 11:52:31;;;;;;;4.53;1.10;;;13.10;99.90;;;;;;5003229;28;20231;-82
2023/03/22 11:54:59;;;;;;;4.23;1.47;;;13.10;99.90;;;;;;5020986;28;20199;-82
2023/03/22 11:57:34;;;;;;;6.93;1.20;;;13.10;99.90;;;;;;5003225;28;20690;-82
2023/03/22 12:00:12;;;;;;;3.30;1.20;;;13.20;99.90;;;;;;5021374;28;20179;-82
2023/03/22 12:02:47;;;;;;;3.47;1.20;;;13.30;99.90;;;;;;5020720;28;20579;-82
2023/03/22 12:05:26;;;;;;;5.20;1.60;;;13.10;99.90;;;;;;5024512;28;20198;-82
2023/03/22 12:07:58;;;;;;;3.30;1.00;;;13.10;99.90;;;;;;5005365;28;20235;-81
2023/03/22 12:10:29;;;;;;;3.77;1.10;;;13.10;99.90;;;;;;5003996;28;20220;-81
2023/03/22 12:13:00;;;;;;;5.90;1.40;;;13.20;99.90;;;;;;5022329;28;20212;-81
2023/03/22 12:15:30;;;;;;;2.70;1.10;;;13.20;99.90;;;;;;5001357;28;20173;-81
2023/03/22 12:18:12;;;;;;;4.53;1.03;;;13.20;99.90;;;;;;5017542;28;20173;-79
2023/03/22 12:20:52;;;;;;;7.80;1.37;;;13.20;99.90;;;;;;4999894;28;20165;-80
2023/03/22 12:23:27;;;;;;;4.43;1.27;;;13.30;99.90;;;;;;4999494;28;20264;-80
2023/03/22 12:26:01;;;;;;;5.33;1.27;;;13.20;99.90;;;;;;5017031;28;20188;-79
2023/03/22 12:28:32;;;;;;;2.90;1.10;;;13.20;99.90;;;;;;5017356;28;20160;-80
2023/03/22 12:30:59;;;;;;;4.30;1.30;;;13.20;99.90;;;;;;5017268;28;20625;-81
2023/03/22 12:33:33;;;;;;;3.03;1.00;;;13.20;99.90;;;;;;5017163;28;20208;-79
2023/03/22 12:36:03;;;;;;;2.97;1.10;;;13.10;99.90;;;;;;4999160;28;20176;-80
2023/03/22 12:38:37;;;;;;;7.60;1.00;;;13.10;99.90;;;;;;5017078;28;20204;-80
2023/03/22 12:41:09;;;;;;;3.07;1.20;;;13.10;99.90;;;;;;4999815;28;20192;-80
2023/03/22 12:43:48;;;;;;;5.77;1.07;;;13.10;99.90;;;;;;4999635;28;20691;-81
2023/03/22 12:46:22;;;;;;;3.33;1.20;;;13.00;99.90;;;;;;5017530;28;20243;-80
2023/03/22 12:48:53;;;;;;;2.23;0.90;;;13.00;99.90;;;;;;5017193;28;20352;-80
2023/03/22 12:51:19;;;;;;;1.67;0.97;;;12.90;99.90;;;;;;5017007;28;20189;-81
2023/03/22 12:53:49;;;;;;;3.03;1.30;;;12.90;99.90;;;;;;4999215;28;20672;-79
2023/03/22 12:56:18;;;;;;;3.60;1.20;;;12.90;99.90;;;;;;5015251;28;20180;-80
2023/03/22 12:58:51;;;;;;;2.60;1.13;;;12.90;99.90;;;;;;5017240;28;20173;-79
2023/03/22 13:01:30;;;;;;;5.37;1.20;;;12.90;99.90;;;;;;4999005;28;20197;-80
2023/03/22 13:03:56;;;;;;;3.37;1.10;;;12.80;99.90;;;;;;5016608;28;20180;-80